sensor_id;sensor_type;location;lat;lon;timestamp;pressure;altitude;pressure_sealevel;temperature;humidity
11198;BME280;5655;48.744;9.162;2022-10-31T00:00:17;96621.78;;;17.06;100.00
11198;BME280;5655;48.744;9.162;2022-10-31T00:02:43;96617.53;;;17.05;100.00
11198;BME280;5655;48.744;9.162;2022-10-31T00:05:08;96616.44;;;16.99;100.00
11198;BME280;5655;48.744;9.162;2022-10-31T00:07:34;96619.47;;;17.08;100.00
11198;BME280;5655;48.744;9.162;2022-10-31T00:09:59;96617.22;;;16.96;100.00
11198;BME280;5655;48.744;9.162;2022-10-31T00:12:25;96610.91;;;17.13;100.00
11198;BME280;5655;48.744;9.162;2022-10-31T00:14:51;96616.44;;;16.99;100.00
11198;BME280;5655;48.744;9.162;2022-10-31T00:17:16;96611.88;;;16.89;100.00
11198;BME280;5655;48.744;9.162;2022-10-31T00:19:42;96607.28;;;16.78;100.00
11198;BME280;5655;48.744;9.162;2022-10-31T00:22:07;96601.31;;;16.43;100.00
11198;BME280;5655;48.744;9.162;2022-10-31T00:24:32;96599.72;;;16.52;100.00
11198;BME280;5655;48.744;9.162;2022-10-31T00:26:57;96600.91;;;16.44;100.00
11198;BME280;5655;48.744;9.162;2022-10-31T00:29:23;96602.78;;;16.54;100.00
11198;BME280;5655;48.744;9.162;2022-10-31T00:31:48;96610.47;;;16.66;100.00
11198;BME280;5655;48.744;9.162;2022-10-31T00:34:13;96614.59;;;16.85;100.00
11198;BME280;5655;48.744;9.162;2022-10-31T00:36:39;96602.03;;;16.50;100.00
11198;BME280;5655;48.744;9.162;2022-10-31T00:39:04;96602.13;;;16.36;100.00
11198;BME280;5655;48.744;9.162;2022-10-31T00:41:29;96603.28;;;16.39;100.00
11198;BME280;5655;48.744;9.162;2022-10-31T00:43:55;96602.88;;;16.40;100.00
11198;BME280;5655;48.744;9.162;2022-10-31T00:46:20;96598.31;;;16.26;100.00
11198;BME280;5655;48.744;9.162;2022-10-31T00:48:45;96602.91;;;16.33;100.00
11198;BME280;5655;48.744;9.162;2022-10-31T00:51:11;96593.72;;;16.20;100.00
11198;BME280;5655;48.744;9.162;2022-10-31T00:53:36;96604.34;;;16.55;100.00
11198;BME280;5655;48.744;9.162;2022-10-31T00:56:01;96604.00;;;16.46;100.00
11198;BME280;5655;48.744;9.162;2022-10-31T00:58:27;96596.75;;;16.29;100.00
11198;BME280;5655;48.744;9.162;2022-10-31T01:00:53;96593.31;;;16.25;100.00
11198;BME280;5655;48.744;9.162;2022-10-31T01:03:25;96600.13;;;16.51;100.00
11198;BME280;5655;48.744;9.162;2022-10-31T01:06:09;96600.41;;;16.70;100.00
11198;BME280;5655;48.744;9.162;2022-10-31T01:08:36;96596.59;;;16.64;100.00
11198;BME280;5655;48.744;9.162;2022-10-31T01:11:13;96589.75;;;16.39;100.00
11198;BME280;5655;48.744;9.162;2022-10-31T01:13:39;96587.53;;;16.19;100.00
11198;BME280;5655;48.744;9.162;2022-10-31T01:16:06;96588.28;;;16.23;100.00
11198;BME280;5655;48.744;9.162;2022-10-31T01:18:32;96590.66;;;16.11;100.00
11198;BME280;5655;48.744;9.162;2022-10-31T01:23:28;96582.06;;;16.33;100.00
11198;BME280;5655;48.744;9.162;2022-10-31T01:26:11;96582.16;;;16.16;100.00
11198;BME280;5655;48.744;9.162;2022-10-31T01:28:39;96584.53;;;16.03;100.00
11198;BME280;5655;48.744;9.162;2022-10-31T01:31:08;96579.59;;;15.87;100.00
11198;BME280;5655;48.744;9.162;2022-10-31T01:33:34;96573.84;;;15.78;100.00
11198;BME280;5655;48.744;9.162;2022-10-31T01:36:00;96583.78;;;15.99;100.00
11198;BME280;5655;48.744;9.162;2022-10-31T01:38:26;96577.63;;;15.88;100.00
11198;BME280;5655;48.744;9.162;2022-10-31T01:40:52;96579.91;;;15.97;100.00
11198;BME280;5655;48.744;9.162;2022-10-31T01:43:18;96582.19;;;16.12;100.00
11198;BME280;5655;48.744;9.162;2022-10-31T01:45:49;96577.16;;;16.11;100.00
11198;BME280;5655;48.744;9.162;2022-10-31T01:48:18;96574.47;;;16.11;100.00
11198;BME280;5655;48.744;9.162;2022-10-31T01:50:45;96572.25;;;15.84;100.00
11198;BME280;5655;48.744;9.162;2022-10-31T01:53:12;96570.72;;;15.83;100.00
11198;BME280;5655;48.744;9.162;2022-10-31T01:55:40;96565.31;;;15.80;100.00
11198;BME280;5655;48.744;9.162;2022-10-31T01:58:13;96561.13;;;15.68;100.00
11198;BME280;5655;48.744;9.162;2022-10-31T02:00:40;96554.25;;;15.53;100.00
11198;BME280;5655;48.744;9.162;2022-10-31T02:03:08;96556.13;;;15.49;100.00
11198;BME280;5655;48.744;9.162;2022-10-31T02:05:34;96559.97;;;15.69;100.00
11198;BME280;5655;48.744;9.162;2022-10-31T02:08:26;96564.50;;;15.94;100.00
11198;BME280;5655;48.744;9.162;2022-10-31T02:10:52;96561.47;;;15.84;100.00
11198;BME280;5655;48.744;9.162;2022-10-31T02:13:18;96560.22;;;16.07;100.00
11198;BME280;5655;48.744;9.162;2022-10-31T02:15:45;96560.66;;;15.95;100.00
11198;BME280;5655;48.744;9.162;2022-10-31T02:18:12;96563.69;;;16.04;100.00
11198;BME280;5655;48.744;9.162;2022-10-31T02:21:02;96566.66;;;16.27;100.00
11198;BME280;5655;48.744;9.162;2022-10-31T02:26:27;96565.91;;;16.23;100.00
11198;BME280;5655;48.744;9.162;2022-10-31T02:34:26;96561.75;;;16.08;100.00
11198;BME280;5655;48.744;9.162;2022-10-31T02:39:40;96564.09;;;15.99;100.00
11198;BME280;5655;48.744;9.162;2022-10-31T02:44:54;96567.09;;;16.15;100.00
11198;BME280;5655;48.744;9.162;2022-10-31T02:47:31;96567.47;;;16.20;100.00
11198;BME280;5655;48.744;9.162;2022-10-31T02:50:24;96566.66;;;16.27;100.00
11198;BME280;5655;48.744;9.162;2022-10-31T02:52:55;96568.19;;;16.28;100.00
11198;BME280;5655;48.744;9.162;2022-10-31T02:58:08;96557.59;;;15.85;100.00
11198;BME280;5655;48.744;9.162;2022-10-31T03:01:00;96555.34;;;15.70;100.00
11198;BME280;5655;48.744;9.162;2022-10-31T03:06:38;96562.13;;;16.06;100.00
11198;BME280;5655;48.744;9.162;2022-10-31T03:09:16;96557.94;;;15.95;100.00
11198;BME280;5655;48.744;9.162;2022-10-31T03:12:01;96556.81;;;15.88;100.00
11198;BME280;5655;48.744;9.162;2022-10-31T03:17:05;96554.81;;;16.07;100.00
11198;BME280;5655;48.744;9.162;2022-10-31T03:19:39;96550.56;;;16.06;100.00
11198;BME280;5655;48.744;9.162;2022-10-31T03:22:25;96556.72;;;16.06;100.00
11198;BME280;5655;48.744;9.162;2022-10-31T03:24:52;96553.75;;;15.79;100.00
11198;BME280;5655;48.744;9.162;2022-10-31T03:27:27;96559.13;;;15.90;100.00
11198;BME280;5655;48.744;9.162;2022-10-31T03:29:56;96548.47;;;15.51;100.00
11198;BME280;5655;48.744;9.162;2022-10-31T03:32:42;96559.25;;;15.51;100.00
11198;BME280;5655;48.744;9.162;2022-10-31T03:35:10;96556.16;;;15.60;100.00
11198;BME280;5655;48.744;9.162;2022-10-31T03:37:40;96558.44;;;15.68;100.00
11198;BME280;5655;48.744;9.162;2022-10-31T03:40:07;96556.88;;;15.74;100.00
11198;BME280;5655;48.744;9.162;2022-10-31T03:42:39;96546.94;;;15.29;100.00
11198;BME280;5655;48.744;9.162;2022-10-31T03:45:11;96547.72;;;15.26;100.00
11198;BME280;5655;48.744;9.162;2022-10-31T03:47:38;96560.09;;;15.06;100.00
11198;BME280;5655;48.744;9.162;2022-10-31T03:50:06;96549.28;;;15.27;100.00
11198;BME280;5655;48.744;9.162;2022-10-31T03:52:42;96556.97;;;15.25;100.00
11198;BME280;5655;48.744;9.162;2022-10-31T03:55:19;96562.38;;;15.11;100.00
11198;BME280;5655;48.744;9.162;2022-10-31T04:00:21;96549.28;;;15.27;100.00
11198;BME280;5655;48.744;9.162;2022-10-31T04:05:21;96556.97;;;15.21;100.00
11198;BME280;5655;48.744;9.162;2022-10-31T04:07:50;96548.47;;;15.44;100.00
11198;BME280;5655;48.744;9.162;2022-10-31T04:10:18;96558.47;;;15.54;100.00
11198;BME280;5655;48.744;9.162;2022-10-31T04:12:49;96553.06;;;15.61;100.00
11198;BME280;5655;48.744;9.162;2022-10-31T04:15:16;96544.22;;;15.57;100.00
11198;BME280;5655;48.744;9.162;2022-10-31T04:17:44;96554.59;;;15.62;100.00
11198;BME280;5655;48.744;9.162;2022-10-31T04:20:10;96543.06;;;15.55;100.00
11198;BME280;5655;48.744;9.162;2022-10-31T04:22:35;96547.69;;;15.51;100.00
11198;BME280;5655;48.744;9.162;2022-10-31T04:25:01;96541.91;;;15.52;100.00
11198;BME280;5655;48.744;9.162;2022-10-31T04:27:26;96533.03;;;15.48;100.00
11198;BME280;5655;48.744;9.162;2022-10-31T04:29:52;96537.69;;;15.44;100.00
11198;BME280;5655;48.744;9.162;2022-10-31T04:32:17;96541.13;;;15.41;100.00
11198;BME280;5655;48.744;9.162;2022-10-31T04:34:42;96535.38;;;15.39;100.00
11198;BME280;5655;48.744;9.162;2022-10-31T04:37:08;96526.88;;;15.44;100.00
11198;BME280;5655;48.744;9.162;2022-10-31T04:39:33;96536.50;;;15.41;100.00
11198;BME280;5655;48.744;9.162;2022-10-31T04:41:58;96531.84;;;15.49;100.00
11198;BME280;5655;48.744;9.162;2022-10-31T04:44:24;96532.28;;;15.51;100.00
11198;BME280;5655;48.744;9.162;2022-10-31T04:46:49;96525.69;;;15.59;100.00
11198;BME280;5655;48.744;9.162;2022-10-31T04:49:14;96526.09;;;15.54;100.00
11198;BME280;5655;48.744;9.162;2022-10-31T04:51:39;96522.25;;;15.48;100.00
11198;BME280;5655;48.744;9.162;2022-10-31T04:54:05;96526.13;;;15.33;100.00
11198;BME280;5655;48.744;9.162;2022-10-31T04:56:30;96518.03;;;15.29;100.00
11198;BME280;5655;48.744;9.162;2022-10-31T04:58:55;96518.06;;;15.22;100.00
11198;BME280;5655;48.744;9.162;2022-10-31T05:01:21;96505.78;;;14.89;100.00
11198;BME280;5655;48.744;9.162;2022-10-31T05:03:46;96500.41;;;14.72;100.00
11198;BME280;5655;48.744;9.162;2022-10-31T05:06:12;96508.47;;;14.89;100.00
11198;BME280;5655;48.744;9.162;2022-10-31T05:08:37;96497.66;;;14.33;100.00
11198;BME280;5655;48.744;9.162;2022-10-31T05:11:03;96499.22;;;14.27;100.00
11198;BME280;5655;48.744;9.162;2022-10-31T05:13:29;96488.38;;;13.98;100.00
11198;BME280;5655;48.744;9.162;2022-10-31T05:15:54;96503.41;;;14.14;100.00
11198;BME280;5655;48.744;9.162;2022-10-31T05:18:19;96503.81;;;14.23;100.00
11198;BME280;5655;48.744;9.162;2022-10-31T05:20:45;96505.03;;;14.36;100.00
11198;BME280;5655;48.744;9.162;2022-10-31T05:23:10;96500.34;;;14.29;100.00
11198;BME280;5655;48.744;9.162;2022-10-31T05:25:35;96501.88;;;14.20;100.00
11198;BME280;5655;48.744;9.162;2022-10-31T05:28:01;96500.41;;;14.40;100.00
11198;BME280;5655;48.744;9.162;2022-10-31T05:30:28;96502.72;;;14.45;100.00
11198;BME280;5655;48.744;9.162;2022-10-31T05:32:54;96500.00;;;14.41;100.00
11198;BME280;5655;48.744;9.162;2022-10-31T05:35:25;96506.88;;;14.11;100.00
11198;BME280;5655;48.744;9.162;2022-10-31T05:37:51;96500.75;;;14.35;100.00
11198;BME280;5655;48.744;9.162;2022-10-31T05:40:18;96505.75;;;14.33;100.00
11198;BME280;5655;48.744;9.162;2022-10-31T05:42:44;96505.28;;;14.02;100.00
11198;BME280;5655;48.744;9.162;2022-10-31T05:45:12;96500.69;;;14.06;100.00
11198;BME280;5655;48.744;9.162;2022-10-31T05:47:38;96492.91;;;13.66;100.00
11198;BME280;5655;48.744;9.162;2022-10-31T05:50:04;96500.25;;;13.76;100.00
11198;BME280;5655;48.744;9.162;2022-10-31T05:52:30;96500.69;;;13.99;100.00
11198;BME280;5655;48.744;9.162;2022-10-31T05:54:55;96501.44;;;13.93;100.00
11198;BME280;5655;48.744;9.162;2022-10-31T05:57:20;96489.72;;;13.43;100.00
11198;BME280;5655;48.744;9.162;2022-10-31T05:59:45;96494.75;;;13.48;100.00
11198;BME280;5655;48.744;9.162;2022-10-31T06:02:11;96493.69;;;13.67;100.00
11198;BME280;5655;48.744;9.162;2022-10-31T06:04:36;96495.09;;;13.39;100.00
11198;BME280;5655;48.744;9.162;2022-10-31T06:07:01;96496.66;;;13.51;100.00
11198;BME280;5655;48.744;9.162;2022-10-31T06:09:27;96485.91;;;13.51;100.00
11198;BME280;5655;48.744;9.162;2022-10-31T06:11:52;96495.19;;;13.64;100.00
11198;BME280;5655;48.744;9.162;2022-10-31T06:14:17;96490.59;;;13.68;100.00
11198;BME280;5655;48.744;9.162;2022-10-31T06:16:43;96491.38;;;13.72;100.00
11198;BME280;5655;48.744;9.162;2022-10-31T06:19:08;96497.47;;;13.55;100.00
11198;BME280;5655;48.744;9.162;2022-10-31T06:21:33;96495.31;;;13.99;100.00
11198;BME280;5655;48.744;9.162;2022-10-31T06:23:59;96489.50;;;13.76;100.00
11198;BME280;5655;48.744;9.162;2022-10-31T06:26:24;96494.47;;;13.74;100.00
11198;BME280;5655;48.744;9.162;2022-10-31T06:28:49;96493.75;;;13.91;100.00
11198;BME280;5655;48.744;9.162;2022-10-31T06:31:15;96494.56;;;14.09;100.00
11198;BME280;5655;48.744;9.162;2022-10-31T06:33:41;96499.19;;;14.09;100.00
11198;BME280;5655;48.744;9.162;2022-10-31T06:36:07;96491.44;;;13.90;100.00
11198;BME280;5655;48.744;9.162;2022-10-31T06:38:32;96495.75;;;14.19;100.00
11198;BME280;5655;48.744;9.162;2022-10-31T06:40:57;96498.03;;;14.10;100.00
11198;BME280;5655;48.744;9.162;2022-10-31T06:43:26;96498.41;;;14.01;100.00
11198;BME280;5655;48.744;9.162;2022-10-31T06:45:51;96496.84;;;13.93;100.00
11198;BME280;5655;48.744;9.162;2022-10-31T06:48:17;96499.13;;;13.98;100.00
11198;BME280;5655;48.744;9.162;2022-10-31T06:50:42;96504.53;;;13.98;100.00
11198;BME280;5655;48.744;9.162;2022-10-31T06:53:09;96500.72;;;14.10;100.00
11198;BME280;5655;48.744;9.162;2022-10-31T06:55:35;96502.59;;;14.02;100.00
11198;BME280;5655;48.744;9.162;2022-10-31T06:58:00;96506.88;;;14.11;100.00
11198;BME280;5655;48.744;9.162;2022-10-31T07:00:27;96500.00;;;14.38;100.00
11198;BME280;5655;48.744;9.162;2022-10-31T07:02:57;96498.47;;;14.37;100.00
11198;BME280;5655;48.744;9.162;2022-10-31T07:05:24;96499.25;;;14.51;100.00
11198;BME280;5655;48.744;9.162;2022-10-31T07:07:57;96504.25;;;14.60;100.00
11198;BME280;5655;48.744;9.162;2022-10-31T07:10:24;96500.78;;;14.81;100.00
11198;BME280;5655;48.744;9.162;2022-10-31T07:12:55;96500.41;;;14.82;100.00
11198;BME280;5655;48.744;9.162;2022-10-31T07:15:21;96500.03;;;14.70;100.00
11198;BME280;5655;48.744;9.162;2022-10-31T07:17:46;96494.63;;;14.70;100.00
11198;BME280;5655;48.744;9.162;2022-10-31T07:20:12;96501.56;;;14.74;100.00
11198;BME280;5655;48.744;9.162;2022-10-31T07:22:37;96506.56;;;14.65;100.00
11198;BME280;5655;48.744;9.162;2022-10-31T07:25:03;96498.47;;;14.72;100.00
11198;BME280;5655;48.744;9.162;2022-10-31T07:27:29;96513.13;;;14.78;100.00
11198;BME280;5655;48.744;9.162;2022-10-31T07:29:59;96503.88;;;14.79;100.00
11198;BME280;5655;48.744;9.162;2022-10-31T07:32:25;96501.56;;;14.57;100.00
11198;BME280;5655;48.744;9.162;2022-10-31T07:34:50;96504.28;;;14.53;100.00
11198;BME280;5655;48.744;9.162;2022-10-31T07:37:15;96509.25;;;14.83;100.00
11198;BME280;5655;48.744;9.162;2022-10-31T07:39:41;96499.63;;;14.99;100.00
11198;BME280;5655;48.744;9.162;2022-10-31T07:42:06;96504.66;;;14.69;100.00
11198;BME280;5655;48.744;9.162;2022-10-31T07:44:31;96495.41;;;14.91;100.00
11198;BME280;5655;48.744;9.162;2022-10-31T07:46:57;96498.88;;;14.92;100.00
11198;BME280;5655;48.744;9.162;2022-10-31T07:49:22;96499.22;;;15.12;100.00
11198;BME280;5655;48.744;9.162;2022-10-31T07:51:49;96494.22;;;15.14;100.00
11198;BME280;5655;48.744;9.162;2022-10-31T07:54:15;96500.66;;;15.44;100.00
11198;BME280;5655;48.744;9.162;2022-10-31T07:56:40;96496.06;;;15.38;100.00
11198;BME280;5655;48.744;9.162;2022-10-31T07:59:05;96496.75;;;15.67;100.00
11198;BME280;5655;48.744;9.162;2022-10-31T08:01:31;96499.44;;;15.67;100.00
11198;BME280;5655;48.744;9.162;2022-10-31T08:03:56;96504.78;;;15.81;100.00
11198;BME280;5655;48.744;9.162;2022-10-31T08:06:21;96497.97;;;15.48;100.00
11198;BME280;5655;48.744;9.162;2022-10-31T08:08:46;96502.59;;;15.44;100.00
11198;BME280;5655;48.744;9.162;2022-10-31T08:11:12;96497.44;;;15.85;100.00
11198;BME280;5655;48.744;9.162;2022-10-31T08:13:37;96493.72;;;15.54;100.00
11198;BME280;5655;48.744;9.162;2022-10-31T08:16:03;96507.50;;;15.81;100.00
11198;BME280;5655;48.744;9.162;2022-10-31T08:18:30;96495.06;;;15.98;100.00
11198;BME280;5655;48.744;9.162;2022-10-31T08:20:56;96504.22;;;16.14;100.00
11198;BME280;5655;48.744;9.162;2022-10-31T08:23:21;96512.00;;;16.05;100.00
11198;BME280;5655;48.744;9.162;2022-10-31T08:25:46;96494.06;;;15.67;100.00
11198;BME280;5655;48.744;9.162;2022-10-31T08:28:13;96489.00;;;15.83;100.00
11198;BME280;5655;48.744;9.162;2022-10-31T08:30:39;96496.31;;;15.82;100.00
11198;BME280;5655;48.744;9.162;2022-10-31T08:33:10;96496.56;;;16.06;100.00
11198;BME280;5655;48.744;9.162;2022-10-31T08:35:35;96489.50;;;16.26;100.00
11198;BME280;5655;48.744;9.162;2022-10-31T08:38:01;96496.91;;;16.15;100.00
11198;BME280;5655;48.744;9.162;2022-10-31T08:40:29;96493.28;;;16.35;100.00
11198;BME280;5655;48.744;9.162;2022-10-31T08:43:04;96481.13;;;16.68;100.00
11198;BME280;5655;48.744;9.162;2022-10-31T08:45:31;96490.88;;;17.00;100.00
11198;BME280;5655;48.744;9.162;2022-10-31T08:47:58;96471.00;;;17.17;100.00
11198;BME280;5655;48.744;9.162;2022-10-31T08:50:24;96485.25;;;17.58;100.00
11198;BME280;5655;48.744;9.162;2022-10-31T08:52:50;96493.97;;;17.73;100.00
11198;BME280;5655;48.744;9.162;2022-10-31T08:55:15;96491.28;;;17.73;100.00
11198;BME280;5655;48.744;9.162;2022-10-31T08:57:40;96477.88;;;17.21;100.00
11198;BME280;5655;48.744;9.162;2022-10-31T09:00:06;96483.41;;;17.48;100.00
11198;BME280;5655;48.744;9.162;2022-10-31T09:02:32;96478.16;;;17.34;100.00
11198;BME280;5655;48.744;9.162;2022-10-31T09:04:57;96474.88;;;17.16;100.00
11198;BME280;5655;48.744;9.162;2022-10-31T09:07:22;96479.03;;;16.87;100.00
11198;BME280;5655;48.744;9.162;2022-10-31T09:09:47;96478.69;;;17.18;100.00
11198;BME280;5655;48.744;9.162;2022-10-31T09:12:13;96474.72;;;16.93;100.00
11198;BME280;5655;48.744;9.162;2022-10-31T09:14:38;96469.19;;;16.62;100.00
11198;BME280;5655;48.744;9.162;2022-10-31T09:17:03;96466.78;;;16.71;100.00
11198;BME280;5655;48.744;9.162;2022-10-31T09:19:29;96463.69;;;16.73;100.00
11198;BME280;5655;48.744;9.162;2022-10-31T09:21:54;96460.41;;;16.92;100.00
11198;BME280;5655;48.744;9.162;2022-10-31T09:24:20;96466.53;;;17.00;100.00
11198;BME280;5655;48.744;9.162;2022-10-31T09:26:45;96474.63;;;17.37;100.00
11198;BME280;5655;48.744;9.162;2022-10-31T09:29:10;96468.47;;;17.37;100.00
11198;BME280;5655;48.744;9.162;2022-10-31T09:31:36;96481.19;;;17.74;100.00
11198;BME280;5655;48.744;9.162;2022-10-31T09:34:01;96481.81;;;17.85;100.00
11198;BME280;5655;48.744;9.162;2022-10-31T09:36:27;96476.59;;;17.71;100.00
11198;BME280;5655;48.744;9.162;2022-10-31T09:38:52;96466.81;;;17.46;100.00
11198;BME280;5655;48.744;9.162;2022-10-31T09:41:27;96458.31;;;17.44;100.00
11198;BME280;5655;48.744;9.162;2022-10-31T09:44:15;96474.22;;;17.76;100.00
11198;BME280;5655;48.744;9.162;2022-10-31T09:47:04;96459.22;;;17.34;100.00
11198;BME280;5655;48.744;9.162;2022-10-31T09:52:30;96466.03;;;17.80;100.00
11198;BME280;5655;48.744;9.162;2022-10-31T09:55:05;96465.28;;;18.06;100.00
11198;BME280;5655;48.744;9.162;2022-10-31T09:57:35;96467.72;;;17.97;100.00
11198;BME280;5655;48.744;9.162;2022-10-31T10:00:04;96462.69;;;17.99;100.00
11198;BME280;5655;48.744;9.162;2022-10-31T10:02:36;96470.47;;;18.47;100.00
11198;BME280;5655;48.744;9.162;2022-10-31T10:05:16;96475.66;;;18.88;100.00
11198;BME280;5655;48.744;9.162;2022-10-31T10:15:56;96469.19;;;18.58;100.00
11198;BME280;5655;48.744;9.162;2022-10-31T10:27:05;96475.84;;;19.20;100.00
11198;BME280;5655;48.744;9.162;2022-10-31T10:29:42;96470.09;;;19.38;100.00
11198;BME280;5655;48.744;9.162;2022-10-31T10:32:19;96471.78;;;19.52;100.00
11198;BME280;5655;48.744;9.162;2022-10-31T10:34:53;96474.69;;;19.41;100.00
11198;BME280;5655;48.744;9.162;2022-10-31T10:37:32;96469.50;;;19.50;100.00
11198;BME280;5655;48.744;9.162;2022-10-31T10:40:16;96472.00;;;19.61;100.00
11198;BME280;5655;48.744;9.162;2022-10-31T10:42:48;96467.88;;;19.72;100.00
11198;BME280;5655;48.744;9.162;2022-10-31T10:45:34;96456.47;;;19.61;100.00
11198;BME280;5655;48.744;9.162;2022-10-31T10:48:42;96462.09;;;19.51;100.00
11198;BME280;5655;48.744;9.162;2022-10-31T10:51:19;96458.38;;;19.44;100.00
11198;BME280;5655;48.744;9.162;2022-10-31T10:54:10;96451.13;;;19.58;100.00
11198;BME280;5655;48.744;9.162;2022-10-31T10:59:13;96440.19;;;19.61;100.00
11198;BME280;5655;48.744;9.162;2022-10-31T11:01:41;96441.81;;;19.59;100.00
11198;BME280;5655;48.744;9.162;2022-10-31T11:04:32;96436.34;;;19.39;100.00
11198;BME280;5655;48.744;9.162;2022-10-31T11:09:23;96433.06;;;19.28;100.00
11198;BME280;5655;48.744;9.162;2022-10-31T11:11:49;96426.72;;;19.34;100.00
11198;BME280;5655;48.744;9.162;2022-10-31T11:14:15;96421.66;;;19.56;100.00
11198;BME280;5655;48.744;9.162;2022-10-31T11:16:45;96427.16;;;19.53;100.00
11198;BME280;5655;48.744;9.162;2022-10-31T11:19:20;96422.97;;;19.68;100.00
11198;BME280;5655;48.744;9.162;2022-10-31T11:21:47;96423.91;;;19.97;100.00
11198;BME280;5655;48.744;9.162;2022-10-31T11:24:18;96421.91;;;20.33;100.00
11198;BME280;5655;48.744;9.162;2022-10-31T11:26:50;96423.03;;;20.52;100.00
11198;BME280;5655;48.744;9.162;2022-10-31T11:29:25;96415.09;;;20.74;100.00
11198;BME280;5655;48.744;9.162;2022-10-31T11:31:59;96410.28;;;20.49;100.00
11198;BME280;5655;48.744;9.162;2022-10-31T11:34:35;96406.75;;;20.81;100.00
11198;BME280;5655;48.744;9.162;2022-10-31T11:37:27;96407.88;;;21.12;100.00
11198;BME280;5655;48.744;9.162;2022-10-31T11:39:59;96402.03;;;20.98;100.00
11198;BME280;5655;48.744;9.162;2022-10-31T11:42:28;96391.44;;;21.16;100.00
11198;BME280;5655;48.744;9.162;2022-10-31T11:44:55;96391.72;;;21.05;100.00
11198;BME280;5655;48.744;9.162;2022-10-31T11:47:29;96399.44;;;20.78;100.00
11198;BME280;5655;48.744;9.162;2022-10-31T11:49:56;96394.72;;;20.66;100.00
11198;BME280;5655;48.744;9.162;2022-10-31T11:52:27;96395.25;;;21.18;100.00
11198;BME280;5655;48.744;9.162;2022-10-31T11:55:26;96398.00;;;21.02;100.00
11198;BME280;5655;48.744;9.162;2022-10-31T11:57:55;96387.03;;;20.77;100.00
11198;BME280;5655;48.744;9.162;2022-10-31T12:00:27;96384.84;;;21.30;100.00
11198;BME280;5655;48.744;9.162;2022-10-31T12:05:51;96384.16;;;20.68;100.00
11198;BME280;5655;48.744;9.162;2022-10-31T12:08:19;96380.69;;;20.51;100.00
11198;BME280;5655;48.744;9.162;2022-10-31T12:14:03;96371.88;;;20.76;100.00
11198;BME280;5655;48.744;9.162;2022-10-31T12:19:09;96362.16;;;20.91;100.00
11198;BME280;5655;48.744;9.162;2022-10-31T12:21:52;96363.06;;;21.30;100.00
11198;BME280;5655;48.744;9.162;2022-10-31T12:27:18;96352.88;;;21.59;100.00
11198;BME280;5655;48.744;9.162;2022-10-31T12:30:00;96351.16;;;21.23;100.00
11198;BME280;5655;48.744;9.162;2022-10-31T12:32:43;96346.06;;;21.25;100.00
11198;BME280;5655;48.744;9.162;2022-10-31T12:41:19;96334.19;;;21.32;100.00
11198;BME280;5655;48.744;9.162;2022-10-31T12:43:54;96331.75;;;21.09;100.00
11198;BME280;5655;48.744;9.162;2022-10-31T12:57:32;96302.66;;;21.06;100.00
11198;BME280;5655;48.744;9.162;2022-10-31T13:00:16;96298.25;;;20.83;100.00
11198;BME280;5655;48.744;9.162;2022-10-31T13:02:49;96296.06;;;20.49;100.00
11198;BME280;5655;48.744;9.162;2022-10-31T13:05:29;96291.72;;;20.52;100.00
11198;BME280;5655;48.744;9.162;2022-10-31T13:10:36;96295.88;;;20.56;100.00
11198;BME280;5655;48.744;9.162;2022-10-31T13:13:26;96284.91;;;20.60;100.00
11198;BME280;5655;48.744;9.162;2022-10-31T13:15:59;96284.31;;;20.81;100.00
11198;BME280;5655;48.744;9.162;2022-10-31T13:18:38;96278.88;;;20.81;100.00
11198;BME280;5655;48.744;9.162;2022-10-31T13:21:10;96273.25;;;20.88;100.00
11198;BME280;5655;48.744;9.162;2022-10-31T13:23:39;96272.31;;;20.66;100.00
11198;BME280;5655;48.744;9.162;2022-10-31T13:26:12;96270.00;;;20.35;100.00
11198;BME280;5655;48.744;9.162;2022-10-31T13:28:59;96269.47;;;20.69;100.00
11198;BME280;5655;48.744;9.162;2022-10-31T13:31:26;96267.91;;;20.56;100.00
11198;BME280;5655;48.744;9.162;2022-10-31T13:33:57;96268.56;;;20.60;100.00
11198;BME280;5655;48.744;9.162;2022-10-31T13:40:18;96276.84;;;20.98;100.00
11198;BME280;5655;48.744;9.162;2022-10-31T13:45:23;96267.47;;;20.86;100.00
11198;BME280;5655;48.744;9.162;2022-10-31T13:50:39;96255.16;;;20.94;100.00
11198;BME280;5655;48.744;9.162;2022-10-31T13:55:45;96248.13;;;21.09;100.00
11198;BME280;5655;48.744;9.162;2022-10-31T13:58:26;96253.22;;;21.07;100.00
11198;BME280;5655;48.744;9.162;2022-10-31T14:01:12;96248.44;;;21.11;100.00
11198;BME280;5655;48.744;9.162;2022-10-31T14:03:40;96242.63;;;20.84;100.00
11198;BME280;5655;48.744;9.162;2022-10-31T14:06:07;96247.22;;;20.87;100.00
11198;BME280;5655;48.744;9.162;2022-10-31T14:08:36;96253.63;;;20.93;100.00
11198;BME280;5655;48.744;9.162;2022-10-31T14:11:02;96247.78;;;21.07;100.00
11198;BME280;5655;48.744;9.162;2022-10-31T14:15:59;96239.50;;;20.98;100.00
11198;BME280;5655;48.744;9.162;2022-10-31T14:20:56;96225.53;;;20.71;100.00
11198;BME280;5655;48.744;9.162;2022-10-31T14:28:44;96232.38;;;20.75;100.00
11198;BME280;5655;48.744;9.162;2022-10-31T14:31:30;96232.00;;;21.02;100.00
11198;BME280;5655;48.744;9.162;2022-10-31T14:33:59;96227.91;;;20.69;100.00
11198;BME280;5655;48.744;9.162;2022-10-31T14:36:40;96232.31;;;20.79;100.00
11198;BME280;5655;48.744;9.162;2022-10-31T14:39:21;96240.72;;;20.56;100.00
11198;BME280;5655;48.744;9.162;2022-10-31T14:44:45;96232.69;;;20.65;100.00
11198;BME280;5655;48.744;9.162;2022-10-31T14:52:56;96221.84;;;20.90;100.00
11198;BME280;5655;48.744;9.162;2022-10-31T14:55:24;96219.47;;;20.92;100.00
11198;BME280;5655;48.744;9.162;2022-10-31T14:57:54;96219.09;;;20.65;100.00
11198;BME280;5655;48.744;9.162;2022-10-31T15:00:21;96206.00;;;20.02;100.00
11198;BME280;5655;48.744;9.162;2022-10-31T15:05:21;96214.44;;;20.20;100.00
11198;BME280;5655;48.744;9.162;2022-10-31T15:07:52;96208.78;;;20.31;100.00
11198;BME280;5655;48.744;9.162;2022-10-31T15:12:49;96209.69;;;20.24;100.00